Horicon, Wisconsin
Current Conditions -  °F | °C
As of 10:35 AM on Friday 24 Oct 2014 (Local Time) from KUNU Reporting Station
Haze Haze  
Wind Chill: 46°   Ceiling: 300
Heat Index: 48°   Visibility: 1.7mi
Dew Point: 47°   Wind: 5mph
Humidity: 99%   Direction: 190°S
Pressure: 30.05"   Gusts: NA
Location:  43.45°N, 88.63°W
Report Text: KUNU 241535Z AUTO 19004KT 1 3/4SM BR OVC003 09/09 A3005 RMK AO2 T00870085
Loading
Personal Weather Stations






























Interactive Weather Map
Tropical Storm Tracking
New forecast layout! Learn more

10-Day Weather Forecast

Advertisements
Track Severe Weather on mobile